Wauseon, Ohio
Current Conditions -  °F | °C
As of 6:35 PM on Monday 20 Oct 2014 (Local Time) from KUSE Reporting Station
Haze Haze  
Wind Chill: 54°   Ceiling: 2000
Heat Index: 54°   Visibility: 4mi
Dew Point: 52°   Wind: 5mph
Humidity: 94%   Direction: 290°WNW
Pressure: 29.84"   Gusts: NA
Location:  41.55°N, 84.13°W
Report Text: KUSE 202235Z AUTO 29004KT 4SM BR FEW014 OVC020 12/11 A2984 RMK AO2
Loading
Personal Weather Stations






























Interactive Weather Map
Tropical Storm Tracking
New forecast layout! Learn more

10-Day Weather Forecast

Advertisements
Track Severe Weather on mobile